SAS280 EKBI-EKCH
Flight info
| Callsign | SAS280 |
|---|---|
| Flight time | 0h 29m |
| Altitude | 17000 |
| Route | ABINO T56 TESPI |
| Aircraft | DH8D/M-SDE2E3FGRY/H |
Departure
| Time | 2026-04-22 18:33 |
|---|---|
| Airport | Billund Airport (EKBI) |
Arrival
| Time | 2026-04-22 19:02 |
|---|---|
| Airport | Copenhagen Kastrup Airport (EKCH) |
| Time | Latitude | Longitude | Altitude | Speed | Heading |
|---|---|---|---|---|---|
| 2026-04-22 17:59 | 55.74531 | 9.14743 | 237 ft | 0 kts | 357° |
| 2026-04-22 18:26 | 55.74529 | 9.14743 | 237 ft | 0 kts | 356° |
| 2026-04-22 18:27 | 55.74524 | 9.14744 | 237 ft | 1 kts | 355° |
| 2026-04-22 18:27 | 55.74506 | 9.14747 | 236 ft | 3 kts | 355° |
| 2026-04-22 18:27 | 55.74495 | 9.14748 | 236 ft | 0 kts | 354° |
| 2026-04-22 18:27 | 55.74472 | 9.14751 | 236 ft | 3 kts | 4° |
| 2026-04-22 18:28 | 55.74454 | 9.14743 | 235 ft | 2 kts | 30° |
| 2026-04-22 18:28 | 55.74453 | 9.14757 | 235 ft | 5 kts | 85° |
| 2026-04-22 18:28 | 55.74449 | 9.14842 | 236 ft | 8 kts | 90° |
| 2026-04-22 18:28 | 55.74442 | 9.14953 | 236 ft | 10 kts | 128° |
| 2026-04-22 18:29 | 55.74371 | 9.14980 | 235 ft | 11 kts | 176° |
| 2026-04-22 18:29 | 55.74286 | 9.14987 | 235 ft | 12 kts | 176° |
| 2026-04-22 18:29 | 55.74200 | 9.15023 | 234 ft | 12 kts | 127° |
| 2026-04-22 18:29 | 55.74197 | 9.15191 | 234 ft | 15 kts | 86° |
| 2026-04-22 18:30 | 55.74204 | 9.15405 | 234 ft | 20 kts | 86° |
| 2026-04-22 18:30 | 55.74221 | 9.15964 | 237 ft | 22 kts | 86° |
| 2026-04-22 18:30 | 55.74230 | 9.16243 | 240 ft | 22 kts | 86° |
| 2026-04-22 18:31 | 55.74239 | 9.16518 | 243 ft | 22 kts | 86° |
| 2026-04-22 18:31 | 55.74247 | 9.16783 | 245 ft | 18 kts | 86° |
| 2026-04-22 18:31 | 55.74236 | 9.16898 | 246 ft | 7 kts | 156° |
| 2026-04-22 18:31 | 55.74161 | 9.16908 | 246 ft | 12 kts | 178° |
| 2026-04-22 18:32 | 55.74089 | 9.16882 | 246 ft | 7 kts | 237° |
| 2026-04-22 18:32 | 55.74078 | 9.16716 | 245 ft | 38 kts | 265° |
| 2026-04-22 18:32 | 55.74046 | 9.15661 | 236 ft | 124 kts | 267° |
| 2026-04-22 18:32 | 55.74001 | 9.13961 | 576 ft | 149 kts | 269° |
| 2026-04-22 18:33 | 55.74025 | 9.12011 | 1049 ft | 170 kts | 288° |
| 2026-04-22 18:33 | 55.74817 | 9.10529 | 1507 ft | 180 kts | 343° |
| 2026-04-22 18:33 | 55.76045 | 9.11043 | 2038 ft | 199 kts | 32° |
| 2026-04-22 18:33 | 55.77031 | 9.12865 | 2544 ft | 215 kts | 52° |
| 2026-04-22 18:34 | 55.77657 | 9.15317 | 3175 ft | 222 kts | 65° |
| 2026-04-22 18:34 | 55.78200 | 9.17868 | 3812 ft | 223 kts | 62° |
| 2026-04-22 18:34 | 55.78797 | 9.20374 | 4526 ft | 222 kts | 61° |
| 2026-04-22 18:34 | 55.79397 | 9.22892 | 5151 ft | 225 kts | 61° |
| 2026-04-22 18:35 | 55.80003 | 9.25464 | 5814 ft | 226 kts | 62° |
| 2026-04-22 18:35 | 55.80607 | 9.28051 | 6474 ft | 228 kts | 63° |
| 2026-04-22 18:35 | 55.81206 | 9.30629 | 7119 ft | 230 kts | 63° |
| 2026-04-22 18:35 | 55.81818 | 9.33273 | 7767 ft | 232 kts | 64° |
| 2026-04-22 18:36 | 55.82426 | 9.35915 | 8391 ft | 235 kts | 64° |
| 2026-04-22 18:36 | 55.83041 | 9.38596 | 9077 ft | 234 kts | 64° |
| 2026-04-22 18:36 | 55.83654 | 9.41273 | 9676 ft | 238 kts | 64° |
| 2026-04-22 18:36 | 55.84276 | 9.43980 | 10322 ft | 239 kts | 64° |
| 2026-04-22 18:37 | 55.84771 | 9.46811 | 10950 ft | 245 kts | 81° |
| 2026-04-22 18:37 | 55.84557 | 9.49830 | 11578 ft | 250 kts | 99° |
| 2026-04-22 18:37 | 55.84296 | 9.51813 | 11985 ft | 252 kts | 99° |
| 2026-04-22 18:37 | 55.83764 | 9.55850 | 12867 ft | 253 kts | 99° |
| 2026-04-22 18:38 | 55.83360 | 9.58888 | 13508 ft | 254 kts | 99° |
| 2026-04-22 18:38 | 55.82959 | 9.61916 | 14123 ft | 255 kts | 99° |
| 2026-04-22 18:38 | 55.82552 | 9.64999 | 14719 ft | 257 kts | 99° |
| 2026-04-22 18:39 | 55.81708 | 9.71177 | 15841 ft | 260 kts | 101° |
| 2026-04-22 18:39 | 55.81284 | 9.74266 | 16367 ft | 261 kts | 100° |
| 2026-04-22 18:39 | 55.80854 | 9.77422 | 16887 ft | 263 kts | 100° |
| 2026-04-22 18:39 | 55.80426 | 9.80589 | 17162 ft | 273 kts | 100° |
| 2026-04-22 18:40 | 55.79976 | 9.83951 | 17250 ft | 287 kts | 100° |
| 2026-04-22 18:40 | 55.79504 | 9.87471 | 17268 ft | 295 kts | 100° |
| 2026-04-22 18:40 | 55.79026 | 9.91027 | 17275 ft | 302 kts | 100° |
| 2026-04-22 18:40 | 55.78528 | 9.94729 | 17272 ft | 307 kts | 100° |
| 2026-04-22 18:41 | 55.78030 | 9.98420 | 17263 ft | 311 kts | 100° |
| 2026-04-22 18:41 | 55.77523 | 10.02176 | 17265 ft | 315 kts | 100° |
| 2026-04-22 18:41 | 55.77013 | 10.05942 | 17267 ft | 317 kts | 100° |
| 2026-04-22 18:41 | 55.76496 | 10.09745 | 17261 ft | 319 kts | 101° |
| 2026-04-22 18:42 | 55.75969 | 10.13615 | 17262 ft | 321 kts | 101° |
| 2026-04-22 18:42 | 55.75447 | 10.17435 | 17258 ft | 322 kts | 100° |
| 2026-04-22 18:42 | 55.74913 | 10.21337 | 17264 ft | 323 kts | 100° |
| 2026-04-22 18:42 | 55.74383 | 10.25208 | 17259 ft | 324 kts | 100° |
| 2026-04-22 18:43 | 55.73857 | 10.29043 | 17263 ft | 325 kts | 100° |
| 2026-04-22 18:43 | 55.73320 | 10.32954 | 17257 ft | 325 kts | 100° |
| 2026-04-22 18:43 | 55.72779 | 10.36875 | 17258 ft | 326 kts | 100° |
| 2026-04-22 18:43 | 55.72242 | 10.40754 | 17262 ft | 326 kts | 100° |
| 2026-04-22 18:44 | 55.71702 | 10.44653 | 17256 ft | 327 kts | 100° |
| 2026-04-22 18:44 | 55.71158 | 10.48564 | 17256 ft | 327 kts | 100° |
| 2026-04-22 18:44 | 55.70611 | 10.52461 | 17245 ft | 327 kts | 100° |
| 2026-04-22 18:44 | 55.70065 | 10.56362 | 17262 ft | 327 kts | 100° |
| 2026-04-22 18:45 | 55.69709 | 10.58920 | 17260 ft | 327 kts | 100° |
| 2026-04-22 18:45 | 55.68978 | 10.64152 | 17264 ft | 327 kts | 100° |
| 2026-04-22 18:45 | 55.68436 | 10.68029 | 17258 ft | 326 kts | 101° |
| 2026-04-22 18:45 | 55.67883 | 10.71954 | 17259 ft | 327 kts | 101° |
| 2026-04-22 18:46 | 55.67337 | 10.75811 | 17249 ft | 327 kts | 101° |
| 2026-04-22 18:46 | 55.66781 | 10.79738 | 17243 ft | 327 kts | 101° |
| 2026-04-22 18:46 | 55.66229 | 10.83617 | 17257 ft | 327 kts | 101° |
| 2026-04-22 18:46 | 55.65669 | 10.87561 | 17251 ft | 327 kts | 101° |
| 2026-04-22 18:47 | 55.65119 | 10.91415 | 17246 ft | 328 kts | 101° |
| 2026-04-22 18:47 | 55.64558 | 10.95337 | 17249 ft | 328 kts | 101° |
| 2026-04-22 18:47 | 55.64004 | 10.99200 | 17247 ft | 328 kts | 101° |
| 2026-04-22 18:47 | 55.63436 | 11.03148 | 17247 ft | 328 kts | 101° |
| 2026-04-22 18:48 | 55.62875 | 11.07039 | 17244 ft | 328 kts | 101° |
| 2026-04-22 18:48 | 55.62318 | 11.10897 | 17249 ft | 328 kts | 101° |
| 2026-04-22 18:48 | 55.61753 | 11.14796 | 17242 ft | 328 kts | 101° |
| 2026-04-22 18:48 | 55.61182 | 11.18727 | 17241 ft | 328 kts | 101° |
| 2026-04-22 18:49 | 55.60623 | 11.22564 | 17149 ft | 321 kts | 101° |
| 2026-04-22 18:49 | 55.60068 | 11.26384 | 16816 ft | 321 kts | 101° |
| 2026-04-22 18:49 | 55.59500 | 11.30217 | 16407 ft | 322 kts | 101° |
| 2026-04-22 18:49 | 55.58936 | 11.34004 | 15983 ft | 321 kts | 101° |
| 2026-04-22 18:50 | 55.58367 | 11.37823 | 15550 ft | 321 kts | 101° |
| 2026-04-22 18:50 | 55.57803 | 11.41614 | 15119 ft | 321 kts | 101° |
| 2026-04-22 18:50 | 55.57240 | 11.45400 | 14688 ft | 319 kts | 101° |
| 2026-04-22 18:50 | 55.56685 | 11.49131 | 14259 ft | 317 kts | 101° |
| 2026-04-22 18:51 | 55.56144 | 11.52763 | 13841 ft | 315 kts | 101° |
| 2026-04-22 18:51 | 55.55576 | 11.56507 | 13424 ft | 314 kts | 101° |
| 2026-04-22 18:51 | 55.55000 | 11.60163 | 13014 ft | 312 kts | 101° |
| 2026-04-22 18:51 | 55.54453 | 11.63860 | 12599 ft | 311 kts | 100° |
| 2026-04-22 18:52 | 55.53898 | 11.67569 | 12180 ft | 310 kts | 101° |
| 2026-04-22 18:52 | 55.53369 | 11.71196 | 11774 ft | 307 kts | 100° |
| 2026-04-22 18:52 | 55.52845 | 11.74841 | 11369 ft | 307 kts | 100° |
| 2026-04-22 18:52 | 55.52315 | 11.78484 | 10955 ft | 306 kts | 100° |
| 2026-04-22 18:53 | 55.51788 | 11.82112 | 10539 ft | 300 kts | 100° |
| 2026-04-22 18:53 | 55.51275 | 11.85586 | 10061 ft | 290 kts | 100° |
| 2026-04-22 18:53 | 55.50769 | 11.88963 | 9553 ft | 283 kts | 99° |
| 2026-04-22 18:53 | 55.50274 | 11.92242 | 9046 ft | 279 kts | 100° |
| 2026-04-22 18:54 | 55.49774 | 11.95513 | 8592 ft | 276 kts | 100° |
| 2026-04-22 18:54 | 55.49273 | 11.98788 | 8129 ft | 276 kts | 100° |
| 2026-04-22 18:54 | 55.48781 | 12.02004 | 7683 ft | 275 kts | 100° |
| 2026-04-22 18:54 | 55.48286 | 12.05234 | 7326 ft | 272 kts | 101° |
| 2026-04-22 18:55 | 55.47957 | 12.07367 | 7253 ft | 270 kts | 101° |
| 2026-04-22 18:55 | 55.47306 | 12.11585 | 6851 ft | 266 kts | 101° |
| 2026-04-22 18:55 | 55.46816 | 12.14744 | 6514 ft | 265 kts | 100° |
| 2026-04-22 18:55 | 55.46340 | 12.17851 | 6146 ft | 265 kts | 100° |
| 2026-04-22 18:56 | 55.45860 | 12.20974 | 5818 ft | 264 kts | 100° |
| 2026-04-22 18:56 | 55.45380 | 12.24086 | 5450 ft | 267 kts | 101° |
| 2026-04-22 18:56 | 55.44887 | 12.27261 | 5091 ft | 268 kts | 101° |
| 2026-04-22 18:56 | 55.44397 | 12.30424 | 4758 ft | 268 kts | 101° |
| 2026-04-22 18:57 | 55.43908 | 12.33554 | 4319 ft | 261 kts | 101° |
| 2026-04-22 18:57 | 55.43468 | 12.36596 | 3965 ft | 249 kts | 91° |
| 2026-04-22 18:57 | 55.43785 | 12.39325 | 3692 ft | 219 kts | 50° |
| 2026-04-22 18:57 | 55.44904 | 12.40791 | 3448 ft | 193 kts | 8° |
| 2026-04-22 18:58 | 55.46212 | 12.41048 | 3252 ft | 188 kts | 8° |
| 2026-04-22 18:58 | 55.47311 | 12.42264 | 3074 ft | 191 kts | 37° |
| 2026-04-22 18:58 | 55.48314 | 12.43846 | 2872 ft | 196 kts | 31° |
| 2026-04-22 18:58 | 55.49411 | 12.45312 | 2617 ft | 199 kts | 31° |
| 2026-04-22 18:59 | 55.50442 | 12.46845 | 2295 ft | 192 kts | 33° |
| 2026-04-22 18:59 | 55.51427 | 12.48345 | 2016 ft | 182 kts | 32° |
| 2026-04-22 18:59 | 55.52358 | 12.49760 | 1813 ft | 169 kts | 32° |
| 2026-04-22 18:59 | 55.53216 | 12.51077 | 1576 ft | 163 kts | 32° |
| 2026-04-22 19:00 | 55.54059 | 12.52377 | 1360 ft | 158 kts | 32° |
| 2026-04-22 19:00 | 55.54868 | 12.53624 | 1157 ft | 154 kts | 32° |
| 2026-04-22 19:00 | 55.55651 | 12.54834 | 982 ft | 145 kts | 33° |
| 2026-04-22 19:00 | 55.56408 | 12.56006 | 791 ft | 142 kts | 33° |
| 2026-04-22 19:01 | 55.57149 | 12.57147 | 597 ft | 141 kts | 34° |
| 2026-04-22 19:01 | 55.57872 | 12.58267 | 408 ft | 136 kts | 33° |
| 2026-04-22 19:01 | 55.58574 | 12.59351 | 219 ft | 132 kts | 35° |
| 2026-04-22 19:01 | 55.59267 | 12.60430 | 56 ft | 132 kts | 35° |
| 2026-04-22 19:02 | 55.59880 | 12.61374 | 20 ft | 90 kts | 40° |
| 2026-04-22 19:02 | 55.60256 | 12.61958 | 21 ft | 59 kts | 39° |
| 2026-04-22 19:02 | 55.60526 | 12.62374 | 23 ft | 44 kts | 41° |
| 2026-04-22 19:02 | 55.60718 | 12.62670 | 23 ft | 26 kts | 40° |
| 2026-04-22 19:03 | 55.60853 | 12.62808 | 24 ft | 18 kts | 18° |
| 2026-04-22 19:03 | 55.60966 | 12.62865 | 24 ft | 15 kts | 11° |
| 2026-04-22 19:03 | 55.61057 | 12.62897 | 25 ft | 11 kts | 11° |
| 2026-04-22 19:03 | 55.61137 | 12.62944 | 25 ft | 13 kts | 32° |
| 2026-04-22 19:04 | 55.61208 | 12.63049 | 25 ft | 13 kts | 41° |
| 2026-04-22 19:04 | 55.61286 | 12.63169 | 25 ft | 16 kts | 41° |
| 2026-04-22 19:04 | 55.61399 | 12.63343 | 25 ft | 22 kts | 40° |
| 2026-04-22 19:04 | 55.61510 | 12.63516 | 25 ft | 20 kts | 40° |
| 2026-04-22 19:05 | 55.61612 | 12.63673 | 25 ft | 19 kts | 40° |
| 2026-04-22 19:05 | 55.61716 | 12.63832 | 24 ft | 19 kts | 41° |
| 2026-04-22 19:05 | 55.61809 | 12.63977 | 24 ft | 16 kts | 40° |
| 2026-04-22 19:05 | 55.61898 | 12.64093 | 24 ft | 14 kts | 25° |
| 2026-04-22 19:06 | 55.61930 | 12.64212 | 24 ft | 11 kts | 76° |
| 2026-04-22 19:06 | 55.61948 | 12.64371 | 23 ft | 15 kts | 78° |
| 2026-04-22 19:06 | 55.61996 | 12.64526 | 23 ft | 14 kts | 34° |
| 2026-04-22 19:07 | 55.62174 | 12.64730 | 23 ft | 14 kts | 33° |
| 2026-04-22 19:07 | 55.62254 | 12.64827 | 22 ft | 13 kts | 34° |
| 2026-04-22 19:07 | 55.62318 | 12.64918 | 22 ft | 10 kts | 66° |
| 2026-04-22 19:07 | 55.62288 | 12.65036 | 22 ft | 12 kts | 123° |
| 2026-04-22 19:08 | 55.62284 | 12.65180 | 21 ft | 12 kts | 71° |
| 2026-04-22 19:08 | 55.62293 | 12.65341 | 21 ft | 13 kts | 89° |
| 2026-04-22 19:08 | 55.62295 | 12.65509 | 20 ft | 14 kts | 89° |
| 2026-04-22 19:08 | 55.62298 | 12.65630 | 19 ft | 5 kts | 67° |
| 2026-04-22 19:09 | 55.62332 | 12.65660 | 19 ft | 5 kts | 31° |
| 2026-04-22 19:09 | 55.62349 | 12.65681 | 19 ft | 1 kts | 37° |
| 2026-04-22 19:09 | 55.62350 | 12.65682 | 19 ft | 0 kts | 37° |